sensor_id;sensor_type;location;lat;lon;timestamp;P1;durP1;ratioP1;P2;durP2;ratioP2
77571;SDS011;67214;47.454;18.966;2023-08-20T00:01:29;18.57;;;13.15;;
77571;SDS011;67214;47.454;18.966;2023-08-20T00:03:57;17.42;;;14.07;;
77571;SDS011;67214;47.454;18.966;2023-08-20T00:06:25;18.65;;;14.33;;
77571;SDS011;67214;47.454;18.966;2023-08-20T00:08:53;16.67;;;13.90;;
77571;SDS011;67214;47.454;18.966;2023-08-20T00:11:20;17.17;;;14.40;;
77571;SDS011;67214;47.454;18.966;2023-08-20T00:13:48;16.42;;;14.70;;
77571;SDS011;67214;47.454;18.966;2023-08-20T00:16:15;16.93;;;14.47;;
77571;SDS011;67214;47.454;18.966;2023-08-20T00:18:43;16.07;;;14.38;;
77571;SDS011;67214;47.454;18.966;2023-08-20T00:21:11;18.25;;;15.28;;
77571;SDS011;67214;47.454;18.966;2023-08-20T00:23:40;15.80;;;14.15;;
77571;SDS011;67214;47.454;18.966;2023-08-20T00:26:08;15.25;;;13.68;;
77571;SDS011;67214;47.454;18.966;2023-08-20T00:28:36;15.35;;;13.60;;
77571;SDS011;67214;47.454;18.966;2023-08-20T00:31:04;16.00;;;13.80;;
77571;SDS011;67214;47.454;18.966;2023-08-20T00:33:31;16.30;;;14.60;;
77571;SDS011;67214;47.454;18.966;2023-08-20T00:35:59;18.75;;;13.80;;
77571;SDS011;67214;47.454;18.966;2023-08-20T00:38:26;16.97;;;13.85;;
77571;SDS011;67214;47.454;18.966;2023-08-20T00:40:54;17.85;;;14.33;;
77571;SDS011;67214;47.454;18.966;2023-08-20T00:43:21;15.98;;;14.38;;
77571;SDS011;67214;47.454;18.966;2023-08-20T00:45:49;19.67;;;14.40;;
77571;SDS011;67214;47.454;18.966;2023-08-20T00:48:17;15.72;;;14.05;;
77571;SDS011;67214;47.454;18.966;2023-08-20T00:50:45;16.40;;;14.70;;
77571;SDS011;67214;47.454;18.966;2023-08-20T00:53:12;16.37;;;14.07;;
77571;SDS011;67214;47.454;18.966;2023-08-20T00:55:41;16.52;;;13.83;;
77571;SDS011;67214;47.454;18.966;2023-08-20T00:58:10;15.63;;;13.83;;
77571;SDS011;67214;47.454;18.966;2023-08-20T01:00:38;16.15;;;13.75;;
77571;SDS011;67214;47.454;18.966;2023-08-20T01:03:07;15.35;;;13.80;;
77571;SDS011;67214;47.454;18.966;2023-08-20T01:05:37;16.40;;;14.03;;
77571;SDS011;67214;47.454;18.966;2023-08-20T01:08:16;17.25;;;13.48;;
77571;SDS011;67214;47.454;18.966;2023-08-20T01:13:24;15.85;;;13.83;;
77571;SDS011;67214;47.454;18.966;2023-08-20T01:15:52;17.05;;;14.28;;
77571;SDS011;67214;47.454;18.966;2023-08-20T01:18:20;19.70;;;15.38;;
77571;SDS011;67214;47.454;18.966;2023-08-20T01:20:55;16.57;;;14.47;;
77571;SDS011;67214;47.454;18.966;2023-08-20T01:23:24;20.35;;;14.47;;
77571;SDS011;67214;47.454;18.966;2023-08-20T01:26:30;16.23;;;14.03;;
77571;SDS011;67214;47.454;18.966;2023-08-20T01:28:55;16.15;;;14.45;;
77571;SDS011;67214;47.454;18.966;2023-08-20T01:31:23;14.73;;;13.13;;
77571;SDS011;67214;47.454;18.966;2023-08-20T01:33:52;18.20;;;14.80;;
77571;SDS011;67214;47.454;18.966;2023-08-20T01:36:20;17.02;;;14.60;;
77571;SDS011;67214;47.454;18.966;2023-08-20T01:38:48;19.62;;;15.40;;
77571;SDS011;67214;47.454;18.966;2023-08-20T01:41:16;16.75;;;14.93;;
77571;SDS011;67214;47.454;18.966;2023-08-20T01:43:44;20.37;;;14.70;;
77571;SDS011;67214;47.454;18.966;2023-08-20T01:46:11;17.17;;;14.43;;
77571;SDS011;67214;47.454;18.966;2023-08-20T01:48:39;19.17;;;14.65;;
77571;SDS011;67214;47.454;18.966;2023-08-20T01:51:06;20.48;;;15.00;;
77571;SDS011;67214;47.454;18.966;2023-08-20T01:53:35;17.45;;;14.55;;
77571;SDS011;67214;47.454;18.966;2023-08-20T01:56:02;24.47;;;15.18;;
77571;SDS011;67214;47.454;18.966;2023-08-20T01:58:30;17.35;;;14.40;;
77571;SDS011;67214;47.454;18.966;2023-08-20T02:00:58;17.25;;;13.90;;
77571;SDS011;67214;47.454;18.966;2023-08-20T02:03:25;20.85;;;15.50;;
77571;SDS011;67214;47.454;18.966;2023-08-20T02:05:53;15.80;;;14.13;;
77571;SDS011;67214;47.454;18.966;2023-08-20T02:08:20;16.07;;;14.45;;
77571;SDS011;67214;47.454;18.966;2023-08-20T02:10:47;16.77;;;13.25;;
77571;SDS011;67214;47.454;18.966;2023-08-20T02:13:15;20.10;;;14.23;;
77571;SDS011;67214;47.454;18.966;2023-08-20T02:15:42;17.57;;;14.85;;
77571;SDS011;67214;47.454;18.966;2023-08-20T02:18:10;17.67;;;15.55;;
77571;SDS011;67214;47.454;18.966;2023-08-20T02:20:37;16.35;;;14.38;;
77571;SDS011;67214;47.454;18.966;2023-08-20T02:23:05;18.40;;;14.73;;
77571;SDS011;67214;47.454;18.966;2023-08-20T02:25:32;15.32;;;13.58;;
77571;SDS011;67214;47.454;18.966;2023-08-20T02:28:01;16.20;;;14.03;;
77571;SDS011;67214;47.454;18.966;2023-08-20T02:30:29;17.07;;;15.15;;
77571;SDS011;67214;47.454;18.966;2023-08-20T02:32:56;18.77;;;16.20;;
77571;SDS011;67214;47.454;18.966;2023-08-20T02:35:24;17.62;;;15.80;;
77571;SDS011;67214;47.454;18.966;2023-08-20T02:37:51;16.67;;;14.73;;
77571;SDS011;67214;47.454;18.966;2023-08-20T02:40:19;18.05;;;16.15;;
77571;SDS011;67214;47.454;18.966;2023-08-20T02:42:46;23.32;;;16.60;;
77571;SDS011;67214;47.454;18.966;2023-08-20T02:45:13;19.15;;;13.95;;
77571;SDS011;67214;47.454;18.966;2023-08-20T02:47:41;17.62;;;15.80;;
77571;SDS011;67214;47.454;18.966;2023-08-20T02:50:08;17.10;;;15.35;;
77571;SDS011;67214;47.454;18.966;2023-08-20T02:52:36;17.82;;;15.98;;
77571;SDS011;67214;47.454;18.966;2023-08-20T02:55:03;16.55;;;14.58;;
77571;SDS011;67214;47.454;18.966;2023-08-20T02:57:31;19.45;;;16.62;;
77571;SDS011;67214;47.454;18.966;2023-08-20T02:59:58;16.77;;;15.08;;
77571;SDS011;67214;47.454;18.966;2023-08-20T03:02:26;16.95;;;15.18;;
77571;SDS011;67214;47.454;18.966;2023-08-20T03:04:53;18.55;;;15.50;;
77571;SDS011;67214;47.454;18.966;2023-08-20T03:07:22;19.10;;;14.90;;
77571;SDS011;67214;47.454;18.966;2023-08-20T03:09:49;18.82;;;14.78;;
77571;SDS011;67214;47.454;18.966;2023-08-20T03:12:17;15.88;;;14.38;;
77571;SDS011;67214;47.454;18.966;2023-08-20T03:14:44;20.37;;;15.83;;
77571;SDS011;67214;47.454;18.966;2023-08-20T03:17:11;17.15;;;15.45;;
77571;SDS011;67214;47.454;18.966;2023-08-20T03:19:46;17.67;;;15.53;;
77571;SDS011;67214;47.454;18.966;2023-08-20T03:22:09;19.02;;;16.37;;
77571;SDS011;67214;47.454;18.966;2023-08-20T03:24:37;18.95;;;15.98;;
77571;SDS011;67214;47.454;18.966;2023-08-20T03:27:04;23.05;;;16.42;;
77571;SDS011;67214;47.454;18.966;2023-08-20T03:29:32;16.80;;;13.95;;
77571;SDS011;67214;47.454;18.966;2023-08-20T03:31:59;21.45;;;15.40;;
77571;SDS011;67214;47.454;18.966;2023-08-20T03:34:26;19.77;;;15.90;;
77571;SDS011;67214;47.454;18.966;2023-08-20T03:36:54;18.05;;;15.83;;
77571;SDS011;67214;47.454;18.966;2023-08-20T03:39:21;17.62;;;15.78;;
77571;SDS011;67214;47.454;18.966;2023-08-20T03:41:49;16.62;;;14.58;;
77571;SDS011;67214;47.454;18.966;2023-08-20T03:44:18;18.60;;;16.32;;
77571;SDS011;67214;47.454;18.966;2023-08-20T03:46:46;20.90;;;15.85;;
77571;SDS011;67214;47.454;18.966;2023-08-20T03:49:13;18.27;;;16.10;;
77571;SDS011;67214;47.454;18.966;2023-08-20T03:51:41;19.15;;;16.32;;
77571;SDS011;67214;47.454;18.966;2023-08-20T03:54:08;19.05;;;16.57;;
77571;SDS011;67214;47.454;18.966;2023-08-20T03:56:36;19.90;;;17.35;;
77571;SDS011;67214;47.454;18.966;2023-08-20T03:59:03;18.87;;;16.82;;
77571;SDS011;67214;47.454;18.966;2023-08-20T04:01:31;21.15;;;17.57;;
77571;SDS011;67214;47.454;18.966;2023-08-20T04:03:59;17.42;;;15.53;;
77571;SDS011;67214;47.454;18.966;2023-08-20T04:06:27;18.23;;;16.30;;
77571;SDS011;67214;47.454;18.966;2023-08-20T04:08:54;21.50;;;15.90;;
77571;SDS011;67214;47.454;18.966;2023-08-20T04:11:22;19.92;;;15.32;;
77571;SDS011;67214;47.454;18.966;2023-08-20T04:13:49;18.95;;;16.02;;
77571;SDS011;67214;47.454;18.966;2023-08-20T04:16:17;17.82;;;15.95;;
77571;SDS011;67214;47.454;18.966;2023-08-20T04:18:44;22.87;;;16.25;;
77571;SDS011;67214;47.454;18.966;2023-08-20T04:21:11;23.35;;;15.38;;
77571;SDS011;67214;47.454;18.966;2023-08-20T04:23:39;19.48;;;16.42;;
77571;SDS011;67214;47.454;18.966;2023-08-20T04:26:07;20.72;;;17.35;;
77571;SDS011;67214;47.454;18.966;2023-08-20T04:28:34;19.57;;;15.98;;
77571;SDS011;67214;47.454;18.966;2023-08-20T04:31:02;26.05;;;15.72;;
77571;SDS011;67214;47.454;18.966;2023-08-20T04:33:29;18.77;;;15.63;;
77571;SDS011;67214;47.454;18.966;2023-08-20T04:35:57;16.77;;;15.13;;
77571;SDS011;67214;47.454;18.966;2023-08-20T04:38:24;18.15;;;16.10;;
77571;SDS011;67214;47.454;18.966;2023-08-20T04:40:52;17.67;;;15.13;;
77571;SDS011;67214;47.454;18.966;2023-08-20T04:43:19;17.00;;;15.03;;
77571;SDS011;67214;47.454;18.966;2023-08-20T04:45:46;18.62;;;15.80;;
77571;SDS011;67214;47.454;18.966;2023-08-20T04:48:14;18.20;;;16.45;;
77571;SDS011;67214;47.454;18.966;2023-08-20T04:50:41;17.80;;;15.95;;
77571;SDS011;67214;47.454;18.966;2023-08-20T04:53:09;17.57;;;15.85;;
77571;SDS011;67214;47.454;18.966;2023-08-20T04:55:36;22.00;;;15.88;;
77571;SDS011;67214;47.454;18.966;2023-08-20T04:58:04;20.48;;;17.40;;
77571;SDS011;67214;47.454;18.966;2023-08-20T05:00:32;17.15;;;15.15;;
77571;SDS011;67214;47.454;18.966;2023-08-20T05:02:59;17.87;;;16.02;;
77571;SDS011;67214;47.454;18.966;2023-08-20T05:05:27;18.00;;;16.27;;
77571;SDS011;67214;47.454;18.966;2023-08-20T05:07:54;19.92;;;17.82;;
77571;SDS011;67214;47.454;18.966;2023-08-20T05:10:22;17.73;;;15.98;;
77571;SDS011;67214;47.454;18.966;2023-08-20T05:12:49;17.67;;;15.85;;
77571;SDS011;67214;47.454;18.966;2023-08-20T05:15:17;18.87;;;16.73;;
77571;SDS011;67214;47.454;18.966;2023-08-20T05:17:44;19.87;;;15.13;;
77571;SDS011;67214;47.454;18.966;2023-08-20T05:20:11;18.07;;;15.13;;
77571;SDS011;67214;47.454;18.966;2023-08-20T05:22:40;19.50;;;16.48;;
77571;SDS011;67214;47.454;18.966;2023-08-20T05:25:08;16.27;;;14.68;;
77571;SDS011;67214;47.454;18.966;2023-08-20T05:27:35;18.55;;;14.98;;
77571;SDS011;67214;47.454;18.966;2023-08-20T05:30:03;18.60;;;16.12;;
77571;SDS011;67214;47.454;18.966;2023-08-20T05:32:31;20.23;;;15.88;;
77571;SDS011;67214;47.454;18.966;2023-08-20T05:34:58;17.35;;;15.38;;
77571;SDS011;67214;47.454;18.966;2023-08-20T05:37:26;19.70;;;15.72;;
77571;SDS011;67214;47.454;18.966;2023-08-20T05:39:53;17.20;;;15.48;;
77571;SDS011;67214;47.454;18.966;2023-08-20T05:42:21;17.52;;;15.78;;
77571;SDS011;67214;47.454;18.966;2023-08-20T05:44:48;17.37;;;14.95;;
77571;SDS011;67214;47.454;18.966;2023-08-20T05:47:16;16.85;;;15.15;;
77571;SDS011;67214;47.454;18.966;2023-08-20T05:49:43;18.23;;;14.50;;
77571;SDS011;67214;47.454;18.966;2023-08-20T05:52:10;16.30;;;14.73;;
77571;SDS011;67214;47.454;18.966;2023-08-20T05:54:38;14.80;;;13.30;;
77571;SDS011;67214;47.454;18.966;2023-08-20T05:57:05;17.35;;;13.70;;
77571;SDS011;67214;47.454;18.966;2023-08-20T05:59:33;14.05;;;12.65;;
77571;SDS011;67214;47.454;18.966;2023-08-20T06:02:01;12.55;;;11.03;;
77571;SDS011;67214;47.454;18.966;2023-08-20T06:04:29;13.35;;;11.73;;
77571;SDS011;67214;47.454;18.966;2023-08-20T06:06:57;13.85;;;11.57;;
77571;SDS011;67214;47.454;18.966;2023-08-20T06:09:24;11.90;;;10.65;;
77571;SDS011;67214;47.454;18.966;2023-08-20T06:11:52;12.78;;;10.78;;
77571;SDS011;67214;47.454;18.966;2023-08-20T06:14:19;11.08;;;10.08;;
77571;SDS011;67214;47.454;18.966;2023-08-20T06:16:47;12.75;;;11.45;;
77571;SDS011;67214;47.454;18.966;2023-08-20T06:19:14;11.95;;;10.10;;
77571;SDS011;67214;47.454;18.966;2023-08-20T06:21:42;12.90;;;10.13;;
77571;SDS011;67214;47.454;18.966;2023-08-20T06:24:09;16.30;;;9.73;;
77571;SDS011;67214;47.454;18.966;2023-08-20T06:26:37;10.00;;;9.10;;
77571;SDS011;67214;47.454;18.966;2023-08-20T06:29:04;10.68;;;9.58;;
77571;SDS011;67214;47.454;18.966;2023-08-20T06:31:31;10.00;;;8.90;;
77571;SDS011;67214;47.454;18.966;2023-08-20T06:33:59;12.90;;;8.88;;
77571;SDS011;67214;47.454;18.966;2023-08-20T06:36:26;10.28;;;9.35;;
77571;SDS011;67214;47.454;18.966;2023-08-20T06:38:54;10.58;;;9.28;;
77571;SDS011;67214;47.454;18.966;2023-08-20T06:41:22;11.85;;;8.98;;
77571;SDS011;67214;47.454;18.966;2023-08-20T06:43:50;10.30;;;9.30;;
77571;SDS011;67214;47.454;18.966;2023-08-20T06:46:17;11.88;;;9.55;;
77571;SDS011;67214;47.454;18.966;2023-08-20T06:48:45;9.53;;;8.50;;
77571;SDS011;67214;47.454;18.966;2023-08-20T06:51:18;9.63;;;8.63;;
77571;SDS011;67214;47.454;18.966;2023-08-20T06:53:42;10.72;;;8.83;;
77571;SDS011;67214;47.454;18.966;2023-08-20T06:56:09;9.38;;;8.50;;
77571;SDS011;67214;47.454;18.966;2023-08-20T06:58:38;10.00;;;8.10;;
77571;SDS011;67214;47.454;18.966;2023-08-20T07:01:07;10.10;;;8.58;;
77571;SDS011;67214;47.454;18.966;2023-08-20T07:03:38;10.95;;;8.18;;
77571;SDS011;67214;47.454;18.966;2023-08-20T07:06:06;12.20;;;8.98;;
77571;SDS011;67214;47.454;18.966;2023-08-20T07:08:36;9.10;;;8.30;;
77571;SDS011;67214;47.454;18.966;2023-08-20T07:11:07;10.68;;;8.40;;
77571;SDS011;67214;47.454;18.966;2023-08-20T07:13:35;9.30;;;8.18;;
77571;SDS011;67214;47.454;18.966;2023-08-20T07:16:03;8.68;;;7.85;;
77571;SDS011;67214;47.454;18.966;2023-08-20T07:18:30;9.75;;;8.80;;
77571;SDS011;67214;47.454;18.966;2023-08-20T07:20:58;10.75;;;8.63;;
77571;SDS011;67214;47.454;18.966;2023-08-20T07:23:25;10.03;;;8.40;;
77571;SDS011;67214;47.454;18.966;2023-08-20T07:26:03;9.23;;;8.33;;
77571;SDS011;67214;47.454;18.966;2023-08-20T07:28:36;9.23;;;8.33;;
77571;SDS011;67214;47.454;18.966;2023-08-20T07:31:28;9.15;;;8.33;;
77571;SDS011;67214;47.454;18.966;2023-08-20T07:33:51;9.03;;;8.20;;
77571;SDS011;67214;47.454;18.966;2023-08-20T07:36:20;9.93;;;8.88;;
77571;SDS011;67214;47.454;18.966;2023-08-20T07:38:48;9.78;;;8.78;;
77571;SDS011;67214;47.454;18.966;2023-08-20T07:41:17;9.28;;;8.38;;
77571;SDS011;67214;47.454;18.966;2023-08-20T07:43:46;14.00;;;8.63;;
77571;SDS011;67214;47.454;18.966;2023-08-20T07:46:15;9.08;;;8.08;;
77571;SDS011;67214;47.454;18.966;2023-08-20T07:48:42;8.73;;;7.65;;
77571;SDS011;67214;47.454;18.966;2023-08-20T07:51:10;9.35;;;7.72;;
77571;SDS011;67214;47.454;18.966;2023-08-20T07:53:38;9.00;;;7.53;;
77571;SDS011;67214;47.454;18.966;2023-08-20T07:56:05;8.75;;;7.83;;
77571;SDS011;67214;47.454;18.966;2023-08-20T07:58:34;8.58;;;7.72;;
77571;SDS011;67214;47.454;18.966;2023-08-20T08:01:02;10.35;;;8.18;;
77571;SDS011;67214;47.454;18.966;2023-08-20T08:03:29;8.68;;;7.80;;
77571;SDS011;67214;47.454;18.966;2023-08-20T08:05:56;9.43;;;8.53;;
77571;SDS011;67214;47.454;18.966;2023-08-20T08:08:24;9.85;;;8.20;;
77571;SDS011;67214;47.454;18.966;2023-08-20T08:10:52;9.23;;;8.20;;
77571;SDS011;67214;47.454;18.966;2023-08-20T08:13:20;10.85;;;7.62;;
77571;SDS011;67214;47.454;18.966;2023-08-20T08:15:49;8.25;;;7.50;;
77571;SDS011;67214;47.454;18.966;2023-08-20T08:18:18;9.38;;;7.75;;
77571;SDS011;67214;47.454;18.966;2023-08-20T08:20:46;16.10;;;8.80;;
77571;SDS011;67214;47.454;18.966;2023-08-20T08:23:13;10.08;;;9.05;;
77571;SDS011;67214;47.454;18.966;2023-08-20T08:25:40;9.78;;;8.78;;
77571;SDS011;67214;47.454;18.966;2023-08-20T08:28:08;24.27;;;15.03;;
77571;SDS011;67214;47.454;18.966;2023-08-20T08:30:36;9.93;;;8.93;;
77571;SDS011;67214;47.454;18.966;2023-08-20T08:33:05;10.88;;;9.38;;
77571;SDS011;67214;47.454;18.966;2023-08-20T08:35:33;9.25;;;8.23;;
77571;SDS011;67214;47.454;18.966;2023-08-20T08:38:00;10.35;;;9.25;;
77571;SDS011;67214;47.454;18.966;2023-08-20T08:40:29;10.60;;;9.50;;
77571;SDS011;67214;47.454;18.966;2023-08-20T08:42:57;9.68;;;8.78;;
77571;SDS011;67214;47.454;18.966;2023-08-20T08:45:25;9.50;;;8.28;;
77571;SDS011;67214;47.454;18.966;2023-08-20T08:47:54;9.53;;;8.63;;
77571;SDS011;67214;47.454;18.966;2023-08-20T08:50:22;11.53;;;7.97;;
77571;SDS011;67214;47.454;18.966;2023-08-20T08:52:51;8.23;;;7.42;;
77571;SDS011;67214;47.454;18.966;2023-08-20T08:55:20;11.03;;;8.23;;
77571;SDS011;67214;47.454;18.966;2023-08-20T08:57:47;8.38;;;7.58;;
77571;SDS011;67214;47.454;18.966;2023-08-20T09:00:15;8.60;;;7.30;;
77571;SDS011;67214;47.454;18.966;2023-08-20T09:02:42;8.68;;;7.80;;
77571;SDS011;67214;47.454;18.966;2023-08-20T09:05:12;8.18;;;7.40;;
77571;SDS011;67214;47.454;18.966;2023-08-20T09:07:42;8.63;;;7.80;;
77571;SDS011;67214;47.454;18.966;2023-08-20T09:10:16;9.70;;;8.63;;
77571;SDS011;67214;47.454;18.966;2023-08-20T09:12:44;9.13;;;8.33;;
77571;SDS011;67214;47.454;18.966;2023-08-20T09:15:13;9.45;;;8.45;;
77571;SDS011;67214;47.454;18.966;2023-08-20T09:17:41;12.90;;;11.55;;
77571;SDS011;67214;47.454;18.966;2023-08-20T09:20:08;8.03;;;7.22;;
77571;SDS011;67214;47.454;18.966;2023-08-20T09:22:36;8.13;;;7.40;;
77571;SDS011;67214;47.454;18.966;2023-08-20T09:25:04;8.65;;;7.03;;
77571;SDS011;67214;47.454;18.966;2023-08-20T09:27:38;8.20;;;7.40;;
77571;SDS011;67214;47.454;18.966;2023-08-20T09:30:07;9.65;;;8.68;;
77571;SDS011;67214;47.454;18.966;2023-08-20T09:32:35;8.80;;;7.62;;
77571;SDS011;67214;47.454;18.966;2023-08-20T09:35:03;8.58;;;7.30;;
77571;SDS011;67214;47.454;18.966;2023-08-20T09:37:31;9.03;;;7.87;;
77571;SDS011;67214;47.454;18.966;2023-08-20T09:40:00;13.13;;;10.58;;
77571;SDS011;67214;47.454;18.966;2023-08-20T09:42:28;10.00;;;8.10;;
77571;SDS011;67214;47.454;18.966;2023-08-20T09:44:58;14.85;;;11.40;;
77571;SDS011;67214;47.454;18.966;2023-08-20T09:47:30;8.65;;;7.78;;
77571;SDS011;67214;47.454;18.966;2023-08-20T09:50:00;8.85;;;8.15;;
77571;SDS011;67214;47.454;18.966;2023-08-20T09:52:40;9.13;;;8.20;;
77571;SDS011;67214;47.454;18.966;2023-08-20T09:55:11;9.85;;;7.62;;
77571;SDS011;67214;47.454;18.966;2023-08-20T09:57:46;10.60;;;7.62;;
77571;SDS011;67214;47.454;18.966;2023-08-20T10:00:14;11.65;;;8.25;;
77571;SDS011;67214;47.454;18.966;2023-08-20T10:02:42;7.90;;;7.20;;
77571;SDS011;67214;47.454;18.966;2023-08-20T10:05:10;8.33;;;7.40;;
77571;SDS011;67214;47.454;18.966;2023-08-20T10:07:40;8.63;;;7.12;;
77571;SDS011;67214;47.454;18.966;2023-08-20T10:10:09;7.75;;;6.45;;
77571;SDS011;67214;47.454;18.966;2023-08-20T10:12:42;8.40;;;6.83;;
77571;SDS011;67214;47.454;18.966;2023-08-20T10:15:12;7.92;;;6.20;;
77571;SDS011;67214;47.454;18.966;2023-08-20T10:17:41;6.87;;;5.90;;
77571;SDS011;67214;47.454;18.966;2023-08-20T10:20:13;7.03;;;6.35;;
77571;SDS011;67214;47.454;18.966;2023-08-20T10:22:44;6.72;;;6.12;;
77571;SDS011;67214;47.454;18.966;2023-08-20T10:25:21;8.45;;;5.97;;
77571;SDS011;67214;47.454;18.966;2023-08-20T10:27:51;8.88;;;6.62;;
77571;SDS011;67214;47.454;18.966;2023-08-20T10:30:23;7.25;;;6.55;;
77571;SDS011;67214;47.454;18.966;2023-08-20T10:32:54;7.17;;;6.58;;
77571;SDS011;67214;47.454;18.966;2023-08-20T10:35:26;10.45;;;7.22;;
77571;SDS011;67214;47.454;18.966;2023-08-20T10:38:13;6.97;;;6.35;;
77571;SDS011;67214;47.454;18.966;2023-08-20T10:40:49;7.42;;;6.40;;
77571;SDS011;67214;47.454;18.966;2023-08-20T10:48:47;9.85;;;7.35;;
77571;SDS011;67214;47.454;18.966;2023-08-20T10:51:18;8.23;;;7.28;;
77571;SDS011;67214;47.454;18.966;2023-08-20T10:59:16;10.20;;;7.45;;
77571;SDS011;67214;47.454;18.966;2023-08-20T11:01:51;9.75;;;8.30;;
77571;SDS011;67214;47.454;18.966;2023-08-20T11:04:27;7.40;;;6.62;;
77571;SDS011;67214;47.454;18.966;2023-08-20T11:06:56;8.08;;;7.28;;
77571;SDS011;67214;47.454;18.966;2023-08-20T11:09:26;8.20;;;7.17;;
77571;SDS011;67214;47.454;18.966;2023-08-20T11:11:54;8.48;;;7.35;;
77571;SDS011;67214;47.454;18.966;2023-08-20T11:14:22;9.00;;;6.78;;
77571;SDS011;67214;47.454;18.966;2023-08-20T11:16:50;8.20;;;7.40;;
77571;SDS011;67214;47.454;18.966;2023-08-20T11:19:21;7.25;;;6.62;;
77571;SDS011;67214;47.454;18.966;2023-08-20T11:21:49;8.75;;;7.87;;
77571;SDS011;67214;47.454;18.966;2023-08-20T11:24:18;7.62;;;6.90;;
77571;SDS011;67214;47.454;18.966;2023-08-20T11:26:46;7.72;;;6.37;;
77571;SDS011;67214;47.454;18.966;2023-08-20T11:29:16;9.33;;;7.78;;
77571;SDS011;67214;47.454;18.966;2023-08-20T11:31:45;7.37;;;6.67;;
77571;SDS011;67214;47.454;18.966;2023-08-20T11:34:12;8.13;;;7.37;;
77571;SDS011;67214;47.454;18.966;2023-08-20T11:36:40;8.60;;;7.35;;
77571;SDS011;67214;47.454;18.966;2023-08-20T11:39:07;10.40;;;9.28;;
77571;SDS011;67214;47.454;18.966;2023-08-20T11:41:36;11.10;;;7.17;;
77571;SDS011;67214;47.454;18.966;2023-08-20T11:44:04;7.83;;;6.97;;
77571;SDS011;67214;47.454;18.966;2023-08-20T11:46:33;8.03;;;7.08;;
77571;SDS011;67214;47.454;18.966;2023-08-20T11:49:04;7.92;;;7.15;;
77571;SDS011;67214;47.454;18.966;2023-08-20T11:56:52;9.98;;;7.00;;
77571;SDS011;67214;47.454;18.966;2023-08-20T11:59:21;8.60;;;7.90;;
77571;SDS011;67214;47.454;18.966;2023-08-20T12:01:51;8.90;;;8.10;;
77571;SDS011;67214;47.454;18.966;2023-08-20T12:04:23;8.83;;;7.58;;
77571;SDS011;67214;47.454;18.966;2023-08-20T12:07:04;9.08;;;8.03;;
77571;SDS011;67214;47.454;18.966;2023-08-20T12:09:33;14.05;;;8.20;;
77571;SDS011;67214;47.454;18.966;2023-08-20T12:12:01;7.85;;;7.15;;
77571;SDS011;67214;47.454;18.966;2023-08-20T12:14:29;7.47;;;6.87;;
77571;SDS011;67214;47.454;18.966;2023-08-20T12:16:56;11.53;;;7.53;;
77571;SDS011;67214;47.454;18.966;2023-08-20T12:19:24;9.78;;;7.65;;
77571;SDS011;67214;47.454;18.966;2023-08-20T12:21:52;7.75;;;7.15;;
77571;SDS011;67214;47.454;18.966;2023-08-20T12:24:19;7.83;;;7.00;;
77571;SDS011;67214;47.454;18.966;2023-08-20T12:26:47;7.30;;;6.58;;
77571;SDS011;67214;47.454;18.966;2023-08-20T12:29:14;8.15;;;7.17;;
77571;SDS011;67214;47.454;18.966;2023-08-20T12:31:42;8.88;;;7.60;;
77571;SDS011;67214;47.454;18.966;2023-08-20T12:34:10;9.00;;;7.47;;
77571;SDS011;67214;47.454;18.966;2023-08-20T12:36:37;10.65;;;6.83;;
77571;SDS011;67214;47.454;18.966;2023-08-20T12:39:04;7.67;;;6.78;;
77571;SDS011;67214;47.454;18.966;2023-08-20T12:41:32;8.38;;;7.22;;
77571;SDS011;67214;47.454;18.966;2023-08-20T12:44:01;7.90;;;7.10;;
77571;SDS011;67214;47.454;18.966;2023-08-20T12:46:29;9.08;;;7.50;;
77571;SDS011;67214;47.454;18.966;2023-08-20T12:48:57;7.90;;;7.22;;
77571;SDS011;67214;47.454;18.966;2023-08-20T12:51:24;6.62;;;6.03;;
77571;SDS011;67214;47.454;18.966;2023-08-20T12:53:52;7.90;;;7.20;;
77571;SDS011;67214;47.454;18.966;2023-08-20T12:56:20;10.48;;;7.95;;
77571;SDS011;67214;47.454;18.966;2023-08-20T12:58:47;8.15;;;7.35;;
77571;SDS011;67214;47.454;18.966;2023-08-20T13:01:15;8.15;;;7.37;;
77571;SDS011;67214;47.454;18.966;2023-08-20T13:03:44;9.93;;;7.45;;
77571;SDS011;67214;47.454;18.966;2023-08-20T13:06:12;7.75;;;7.05;;
77571;SDS011;67214;47.454;18.966;2023-08-20T13:08:40;8.15;;;7.35;;
77571;SDS011;67214;47.454;18.966;2023-08-20T13:11:08;8.55;;;7.75;;
77571;SDS011;67214;47.454;18.966;2023-08-20T13:13:38;8.33;;;7.45;;
77571;SDS011;67214;47.454;18.966;2023-08-20T13:16:06;8.10;;;7.33;;
77571;SDS011;67214;47.454;18.966;2023-08-20T13:18:34;12.25;;;8.40;;
77571;SDS011;67214;47.454;18.966;2023-08-20T13:21:02;8.58;;;7.60;;
77571;SDS011;67214;47.454;18.966;2023-08-20T13:23:30;9.85;;;7.58;;
77571;SDS011;67214;47.454;18.966;2023-08-20T13:25:58;7.85;;;7.15;;
77571;SDS011;67214;47.454;18.966;2023-08-20T13:28:25;11.38;;;7.87;;
77571;SDS011;67214;47.454;18.966;2023-08-20T13:30:53;8.18;;;7.35;;
77571;SDS011;67214;47.454;18.966;2023-08-20T13:33:21;9.78;;;7.60;;
77571;SDS011;67214;47.454;18.966;2023-08-20T13:35:48;7.95;;;7.25;;
77571;SDS011;67214;47.454;18.966;2023-08-20T13:38:17;8.65;;;7.83;;
77571;SDS011;67214;47.454;18.966;2023-08-20T13:40:47;8.80;;;7.33;;
77571;SDS011;67214;47.454;18.966;2023-08-20T13:43:14;7.70;;;7.05;;
77571;SDS011;67214;47.454;18.966;2023-08-20T13:45:42;9.13;;;7.58;;
77571;SDS011;67214;47.454;18.966;2023-08-20T13:48:09;8.10;;;7.40;;
77571;SDS011;67214;47.454;18.966;2023-08-20T13:50:37;9.25;;;7.70;;
77571;SDS011;67214;47.454;18.966;2023-08-20T13:53:04;8.03;;;7.35;;
77571;SDS011;67214;47.454;18.966;2023-08-20T13:55:32;8.38;;;7.62;;
77571;SDS011;67214;47.454;18.966;2023-08-20T13:58:00;7.67;;;7.08;;
77571;SDS011;67214;47.454;18.966;2023-08-20T14:00:27;8.98;;;7.67;;
77571;SDS011;67214;47.454;18.966;2023-08-20T14:02:55;8.05;;;7.17;;
77571;SDS011;67214;47.454;18.966;2023-08-20T14:05:24;8.43;;;7.58;;
77571;SDS011;67214;47.454;18.966;2023-08-20T14:07:51;9.38;;;7.47;;
77571;SDS011;67214;47.454;18.966;2023-08-20T14:10:20;8.85;;;7.95;;
77571;SDS011;67214;47.454;18.966;2023-08-20T14:12:48;7.08;;;6.47;;
77571;SDS011;67214;47.454;18.966;2023-08-20T14:15:16;7.17;;;6.45;;
77571;SDS011;67214;47.454;18.966;2023-08-20T14:17:44;7.75;;;7.05;;
77571;SDS011;67214;47.454;18.966;2023-08-20T14:20:12;8.35;;;7.40;;
77571;SDS011;67214;47.454;18.966;2023-08-20T14:22:39;11.00;;;7.72;;
77571;SDS011;67214;47.454;18.966;2023-08-20T14:25:07;8.90;;;8.00;;
77571;SDS011;67214;47.454;18.966;2023-08-20T14:27:35;8.35;;;7.50;;
77571;SDS011;67214;47.454;18.966;2023-08-20T14:30:03;8.28;;;7.25;;
77571;SDS011;67214;47.454;18.966;2023-08-20T14:32:31;8.80;;;7.55;;
77571;SDS011;67214;47.454;18.966;2023-08-20T14:34:59;10.95;;;8.50;;
77571;SDS011;67214;47.454;18.966;2023-08-20T14:37:26;9.68;;;7.47;;
77571;SDS011;67214;47.454;18.966;2023-08-20T14:39:54;9.53;;;7.28;;
77571;SDS011;67214;47.454;18.966;2023-08-20T14:42:22;9.90;;;7.53;;
77571;SDS011;67214;47.454;18.966;2023-08-20T14:44:50;8.38;;;7.58;;
77571;SDS011;67214;47.454;18.966;2023-08-20T14:47:19;12.00;;;7.45;;